Wichita, KS (67209)

4:15 PM CST on January 26, 2015 (GMT -0600)
Decker Electric | Change Station
CLOSE
Current Station
Personal Weather Station
Location: Wichita, KS
Elevation: 1312 ft
Nearby Weather Stations

Elev 1312 ft 37.67 °N, 97.39 °W | Updated 0 second ago

Partly Cloudy
Partly Cloudy
70.9 °F
Feels Like 76 °F
N
6.0
Wind Variable Wind from NW

Today
High -- | Low -- °F
--% Chance of Precip.
Yesterday
High -- | Low -- °F
Precip. -- in
7:38 AM 5:46 PM
Waxing Crescent, 47% visible
Pressure 29.99 in
Visibility 10.0 miles
Clouds Few 25000 ft
Heat Index 76 °F
Dew Point 37 °F
Humidity 29%
Rainfall -999.00 in
Snow Depth Not available.
UV 1 out of 12
Pollen 1.90 out of 12
Air Quality Not available.
Flu Activity Not available.
METAR KICT 262153Z 33012KT 10SM FEW250 23/01 A2998 RMK AO2 SLP153 T02330006

More Conditions Fewer Conditions

Pressure 29.99 in
Visibility 10.0 miles
Clouds Few 25000 ft
Heat Index 76 °F
Dew Point 37 °F
Humidity 29%
Rainfall -999.00 in
Snow Depth Not available.
UV 1 out of 12
Pollen 1.90 out of 12
Air Quality Not available.
Flu Activity Not available.
METAR KICT 262153Z 33012KT 10SM FEW250 23/01 A2998 RMK AO2 SLP153 T02330006

More Conditions Fewer Conditions

10-Day Weather Forecast

Almanac

Astronomy

Jan. 26, 2015 Rise Set
Actual Time
Civil Twilight
Nautical Twilight
Astronomical Twilight
Moon
Length of Visible Light
Length of Day
Tomorrow will be .
, % of the Moon is Illuminated

Today's Extremes

State Highs State Lows

Community

WunderPhotos

Upload Photos

1,790,379 photos uploaded!

WunderBlogs® & News

Nearby

Air Quality

  Air Quality AQ Index Pollutant
Not available.

Snow Depth

Station Depth Elevation

Earthquake Activity

City Distance Mag. Time & Date
Minimum magnitude displayed is 2.5.

Coastal Water Temperatures

Place Temperature

Nearby Weather Stations